sensor_id;sensor_type;location;lat;lon;timestamp;P1;durP1;ratioP1;P2;durP2;ratioP2
21613;SDS011;10969;49.550;25.564;2022-08-01T00:01:03;3.42;;;2.83;;
21613;SDS011;10969;49.550;25.564;2022-08-01T00:03:29;2.03;;;1.70;;
21613;SDS011;10969;49.550;25.564;2022-08-01T00:05:55;2.72;;;1.73;;
21613;SDS011;10969;49.550;25.564;2022-08-01T00:08:21;3.05;;;2.20;;
21613;SDS011;10969;49.550;25.564;2022-08-01T00:10:47;3.45;;;2.28;;
21613;SDS011;10969;49.550;25.564;2022-08-01T00:13:13;3.90;;;2.47;;
21613;SDS011;10969;49.550;25.564;2022-08-01T00:15:39;2.70;;;1.92;;
21613;SDS011;10969;49.550;25.564;2022-08-01T00:18:05;3.05;;;1.63;;
21613;SDS011;10969;49.550;25.564;2022-08-01T00:20:31;2.03;;;1.88;;
21613;SDS011;10969;49.550;25.564;2022-08-01T00:22:57;3.75;;;2.55;;
21613;SDS011;10969;49.550;25.564;2022-08-01T00:25:23;3.10;;;2.38;;
21613;SDS011;10969;49.550;25.564;2022-08-01T00:27:49;3.65;;;2.83;;
21613;SDS011;10969;49.550;25.564;2022-08-01T00:30:15;3.08;;;2.40;;
21613;SDS011;10969;49.550;25.564;2022-08-01T00:32:41;3.97;;;2.58;;
21613;SDS011;10969;49.550;25.564;2022-08-01T00:35:08;3.03;;;2.13;;
21613;SDS011;10969;49.550;25.564;2022-08-01T00:37:34;4.00;;;2.92;;
21613;SDS011;10969;49.550;25.564;2022-08-01T00:40:00;3.05;;;2.30;;
21613;SDS011;10969;49.550;25.564;2022-08-01T00:42:26;3.30;;;2.33;;
21613;SDS011;10969;49.550;25.564;2022-08-01T00:44:52;4.65;;;2.15;;
21613;SDS011;10969;49.550;25.564;2022-08-01T00:47:18;4.07;;;2.50;;
21613;SDS011;10969;49.550;25.564;2022-08-01T00:49:44;3.55;;;2.35;;
21613;SDS011;10969;49.550;25.564;2022-08-01T00:52:10;3.22;;;2.20;;
21613;SDS011;10969;49.550;25.564;2022-08-01T00:54:36;4.05;;;2.97;;
21613;SDS011;10969;49.550;25.564;2022-08-01T00:57:02;2.38;;;2.17;;
21613;SDS011;10969;49.550;25.564;2022-08-01T00:59:28;4.25;;;3.25;;
21613;SDS011;10969;49.550;25.564;2022-08-01T01:01:54;3.60;;;2.42;;
21613;SDS011;10969;49.550;25.564;2022-08-01T01:04:20;4.55;;;2.90;;
21613;SDS011;10969;49.550;25.564;2022-08-01T01:06:57;4.82;;;2.95;;
21613;SDS011;10969;49.550;25.564;2022-08-01T01:15:11;5.20;;;3.72;;
21613;SDS011;10969;49.550;25.564;2022-08-01T01:17:12;5.13;;;3.08;;
21613;SDS011;10969;49.550;25.564;2022-08-01T01:19:41;3.53;;;3.15;;
21613;SDS011;10969;49.550;25.564;2022-08-01T01:27:45;4.47;;;2.55;;
21613;SDS011;10969;49.550;25.564;2022-08-01T01:30:13;3.95;;;3.05;;
21613;SDS011;10969;49.550;25.564;2022-08-01T01:32:39;2.63;;;2.42;;
21613;SDS011;10969;49.550;25.564;2022-08-01T01:35:09;4.32;;;3.92;;
21613;SDS011;10969;49.550;25.564;2022-08-01T01:37:38;4.20;;;2.88;;
21613;SDS011;10969;49.550;25.564;2022-08-01T01:40:05;4.78;;;2.72;;
21613;SDS011;10969;49.550;25.564;2022-08-01T01:42:31;4.15;;;2.33;;
21613;SDS011;10969;49.550;25.564;2022-08-01T01:44:57;4.63;;;2.88;;
21613;SDS011;10969;49.550;25.564;2022-08-01T01:47:24;3.38;;;2.42;;
21613;SDS011;10969;49.550;25.564;2022-08-01T01:49:50;3.05;;;2.22;;
21613;SDS011;10969;49.550;25.564;2022-08-01T01:52:17;4.53;;;2.70;;
21613;SDS011;10969;49.550;25.564;2022-08-01T01:54:45;2.33;;;2.10;;
21613;SDS011;10969;49.550;25.564;2022-08-01T01:57:12;5.70;;;2.88;;
21613;SDS011;10969;49.550;25.564;2022-08-01T01:59:39;3.00;;;2.13;;
21613;SDS011;10969;49.550;25.564;2022-08-01T02:02:06;3.70;;;2.22;;
21613;SDS011;10969;49.550;25.564;2022-08-01T02:04:35;3.50;;;2.33;;
21613;SDS011;10969;49.550;25.564;2022-08-01T02:07:02;3.70;;;2.85;;
21613;SDS011;10969;49.550;25.564;2022-08-01T02:09:29;3.63;;;2.85;;
21613;SDS011;10969;49.550;25.564;2022-08-01T02:11:56;3.40;;;2.92;;
21613;SDS011;10969;49.550;25.564;2022-08-01T02:14:23;4.47;;;2.50;;
21613;SDS011;10969;49.550;25.564;2022-08-01T02:16:52;5.30;;;2.58;;
21613;SDS011;10969;49.550;25.564;2022-08-01T02:19:18;1.98;;;1.83;;
21613;SDS011;10969;49.550;25.564;2022-08-01T02:21:51;3.85;;;2.38;;
21613;SDS011;10969;49.550;25.564;2022-08-01T02:24:39;4.93;;;3.28;;
21613;SDS011;10969;49.550;25.564;2022-08-01T02:27:07;3.65;;;2.55;;
21613;SDS011;10969;49.550;25.564;2022-08-01T02:29:39;2.83;;;2.55;;
21613;SDS011;10969;49.550;25.564;2022-08-01T02:32:07;3.67;;;2.92;;
21613;SDS011;10969;49.550;25.564;2022-08-01T02:34:35;6.18;;;3.28;;
21613;SDS011;10969;49.550;25.564;2022-08-01T02:37:01;3.97;;;2.33;;
21613;SDS011;10969;49.550;25.564;2022-08-01T02:39:28;5.38;;;3.55;;
21613;SDS011;10969;49.550;25.564;2022-08-01T02:41:57;6.25;;;2.80;;
21613;SDS011;10969;49.550;25.564;2022-08-01T02:44:26;4.20;;;2.92;;
21613;SDS011;10969;49.550;25.564;2022-08-01T02:46:56;3.85;;;1.67;;
21613;SDS011;10969;49.550;25.564;2022-08-01T02:49:22;4.18;;;2.38;;
21613;SDS011;10969;49.550;25.564;2022-08-01T02:51:49;2.65;;;1.83;;
21613;SDS011;10969;49.550;25.564;2022-08-01T02:54:17;3.40;;;2.20;;
21613;SDS011;10969;49.550;25.564;2022-08-01T02:56:44;2.15;;;1.95;;
21613;SDS011;10969;49.550;25.564;2022-08-01T02:59:12;2.38;;;1.90;;
21613;SDS011;10969;49.550;25.564;2022-08-01T03:01:39;2.00;;;1.65;;
21613;SDS011;10969;49.550;25.564;2022-08-01T03:04:05;8.50;;;2.10;;
21613;SDS011;10969;49.550;25.564;2022-08-01T03:06:32;3.67;;;1.50;;
21613;SDS011;10969;49.550;25.564;2022-08-01T03:09:02;1.77;;;1.45;;
21613;SDS011;10969;49.550;25.564;2022-08-01T03:11:29;3.92;;;2.20;;
21613;SDS011;10969;49.550;25.564;2022-08-01T03:13:56;2.85;;;2.15;;
21613;SDS011;10969;49.550;25.564;2022-08-01T03:16:24;1.88;;;1.23;;
21613;SDS011;10969;49.550;25.564;2022-08-01T03:18:53;2.30;;;2.10;;
21613;SDS011;10969;49.550;25.564;2022-08-01T03:21:19;2.78;;;1.60;;
21613;SDS011;10969;49.550;25.564;2022-08-01T03:23:47;3.30;;;2.25;;
21613;SDS011;10969;49.550;25.564;2022-08-01T03:26:14;3.38;;;1.35;;
21613;SDS011;10969;49.550;25.564;2022-08-01T03:28:40;2.95;;;1.42;;
21613;SDS011;10969;49.550;25.564;2022-08-01T03:31:07;1.73;;;1.50;;
21613;SDS011;10969;49.550;25.564;2022-08-01T03:33:34;1.50;;;1.40;;
21613;SDS011;10969;49.550;25.564;2022-08-01T03:36:00;2.10;;;1.85;;
21613;SDS011;10969;49.550;25.564;2022-08-01T03:38:27;9.00;;;1.88;;
21613;SDS011;10969;49.550;25.564;2022-08-01T03:40:58;3.13;;;1.58;;
21613;SDS011;10969;49.550;25.564;2022-08-01T03:43:32;1.98;;;1.58;;
21613;SDS011;10969;49.550;25.564;2022-08-01T03:46:01;4.43;;;1.60;;
21613;SDS011;10969;49.550;25.564;2022-08-01T03:48:29;2.75;;;2.10;;
21613;SDS011;10969;49.550;25.564;2022-08-01T03:50:59;1.63;;;1.52;;
21613;SDS011;10969;49.550;25.564;2022-08-01T03:53:28;3.63;;;2.05;;
21613;SDS011;10969;49.550;25.564;2022-08-01T03:55:55;2.75;;;1.63;;
21613;SDS011;10969;49.550;25.564;2022-08-01T03:58:22;2.38;;;2.03;;
21613;SDS011;10969;49.550;25.564;2022-08-01T04:00:48;3.58;;;1.85;;
21613;SDS011;10969;49.550;25.564;2022-08-01T04:03:14;2.38;;;2.03;;
21613;SDS011;10969;49.550;25.564;2022-08-01T04:05:41;2.15;;;1.40;;
21613;SDS011;10969;49.550;25.564;2022-08-01T04:08:07;1.13;;;1.10;;
21613;SDS011;10969;49.550;25.564;2022-08-01T04:10:33;2.03;;;1.88;;
21613;SDS011;10969;49.550;25.564;2022-08-01T04:13:00;2.63;;;1.63;;
21613;SDS011;10969;49.550;25.564;2022-08-01T04:15:26;4.38;;;3.15;;
21613;SDS011;10969;49.550;25.564;2022-08-01T04:17:52;4.30;;;2.00;;
21613;SDS011;10969;49.550;25.564;2022-08-01T04:20:19;4.00;;;1.90;;
21613;SDS011;10969;49.550;25.564;2022-08-01T04:22:45;3.78;;;2.08;;
21613;SDS011;10969;49.550;25.564;2022-08-01T04:25:12;3.05;;;1.45;;
21613;SDS011;10969;49.550;25.564;2022-08-01T04:27:40;4.78;;;2.20;;
21613;SDS011;10969;49.550;25.564;2022-08-01T04:30:08;1.38;;;1.20;;
21613;SDS011;10969;49.550;25.564;2022-08-01T04:32:35;2.60;;;1.65;;
21613;SDS011;10969;49.550;25.564;2022-08-01T04:35:04;1.70;;;1.60;;
21613;SDS011;10969;49.550;25.564;2022-08-01T04:37:32;2.47;;;1.67;;
21613;SDS011;10969;49.550;25.564;2022-08-01T04:39:58;1.50;;;1.40;;
21613;SDS011;10969;49.550;25.564;2022-08-01T04:42:25;2.95;;;1.92;;
21613;SDS011;10969;49.550;25.564;2022-08-01T04:44:52;2.28;;;1.38;;
21613;SDS011;10969;49.550;25.564;2022-08-01T04:47:18;4.63;;;2.08;;
21613;SDS011;10969;49.550;25.564;2022-08-01T04:49:45;2.42;;;1.85;;
21613;SDS011;10969;49.550;25.564;2022-08-01T04:52:11;1.20;;;1.10;;
21613;SDS011;10969;49.550;25.564;2022-08-01T04:54:38;1.67;;;1.58;;
21613;SDS011;10969;49.550;25.564;2022-08-01T04:57:04;0.93;;;0.90;;
21613;SDS011;10969;49.550;25.564;2022-08-01T04:59:31;1.58;;;1.30;;
21613;SDS011;10969;49.550;25.564;2022-08-01T05:02:07;1.30;;;1.20;;
21613;SDS011;10969;49.550;25.564;2022-08-01T05:04:34;2.97;;;1.73;;
21613;SDS011;10969;49.550;25.564;2022-08-01T05:07:00;1.35;;;1.17;;
21613;SDS011;10969;49.550;25.564;2022-08-01T05:09:26;2.20;;;1.55;;
21613;SDS011;10969;49.550;25.564;2022-08-01T05:11:53;2.67;;;1.33;;
21613;SDS011;10969;49.550;25.564;2022-08-01T05:14:19;2.47;;;1.55;;
21613;SDS011;10969;49.550;25.564;2022-08-01T05:16:46;1.80;;;1.50;;
21613;SDS011;10969;49.550;25.564;2022-08-01T05:19:12;1.80;;;1.15;;
21613;SDS011;10969;49.550;25.564;2022-08-01T05:21:38;0.90;;;0.82;;
21613;SDS011;10969;49.550;25.564;2022-08-01T05:24:04;1.50;;;1.17;;
21613;SDS011;10969;49.550;25.564;2022-08-01T05:26:30;2.35;;;1.05;;
21613;SDS011;10969;49.550;25.564;2022-08-01T05:28:56;1.40;;;1.30;;
21613;SDS011;10969;49.550;25.564;2022-08-01T05:31:22;1.30;;;1.20;;
21613;SDS011;10969;49.550;25.564;2022-08-01T05:33:48;1.90;;;1.17;;
21613;SDS011;10969;49.550;25.564;2022-08-01T05:36:14;7.35;;;1.70;;
21613;SDS011;10969;49.550;25.564;2022-08-01T05:38:40;1.10;;;1.00;;
21613;SDS011;10969;49.550;25.564;2022-08-01T05:41:06;3.35;;;1.75;;
21613;SDS011;10969;49.550;25.564;2022-08-01T05:43:32;1.40;;;1.27;;
21613;SDS011;10969;49.550;25.564;2022-08-01T05:45:58;1.38;;;1.08;;
21613;SDS011;10969;49.550;25.564;2022-08-01T05:48:25;1.20;;;1.05;;
21613;SDS011;10969;49.550;25.564;2022-08-01T05:50:52;1.95;;;1.25;;
21613;SDS011;10969;49.550;25.564;2022-08-01T05:53:18;0.68;;;0.68;;
21613;SDS011;10969;49.550;25.564;2022-08-01T05:55:44;2.25;;;1.42;;
21613;SDS011;10969;49.550;25.564;2022-08-01T05:58:10;3.40;;;1.38;;
21613;SDS011;10969;49.550;25.564;2022-08-01T06:00:37;1.20;;;1.10;;
21613;SDS011;10969;49.550;25.564;2022-08-01T06:03:03;2.63;;;1.02;;
21613;SDS011;10969;49.550;25.564;2022-08-01T06:05:29;1.23;;;1.13;;
21613;SDS011;10969;49.550;25.564;2022-08-01T06:07:55;0.68;;;0.68;;
21613;SDS011;10969;49.550;25.564;2022-08-01T06:10:21;1.42;;;1.05;;
21613;SDS011;10969;49.550;25.564;2022-08-01T06:12:47;1.50;;;1.30;;
21613;SDS011;10969;49.550;25.564;2022-08-01T06:15:13;1.35;;;1.27;;
21613;SDS011;10969;49.550;25.564;2022-08-01T06:17:39;0.77;;;0.65;;
21613;SDS011;10969;49.550;25.564;2022-08-01T06:20:06;1.30;;;1.13;;
21613;SDS011;10969;49.550;25.564;2022-08-01T06:22:32;1.98;;;1.33;;
21613;SDS011;10969;49.550;25.564;2022-08-01T06:24:58;2.80;;;1.58;;
21613;SDS011;10969;49.550;25.564;2022-08-01T06:27:24;2.05;;;1.20;;
21613;SDS011;10969;49.550;25.564;2022-08-01T06:29:51;1.60;;;1.25;;
21613;SDS011;10969;49.550;25.564;2022-08-01T06:32:21;2.57;;;2.00;;
21613;SDS011;10969;49.550;25.564;2022-08-01T06:34:51;2.20;;;0.98;;
21613;SDS011;10969;49.550;25.564;2022-08-01T06:37:17;5.50;;;1.50;;
21613;SDS011;10969;49.550;25.564;2022-08-01T06:39:43;2.47;;;1.45;;
21613;SDS011;10969;49.550;25.564;2022-08-01T06:42:09;1.40;;;1.30;;
21613;SDS011;10969;49.550;25.564;2022-08-01T06:44:35;1.58;;;1.23;;
21613;SDS011;10969;49.550;25.564;2022-08-01T06:47:01;4.57;;;1.55;;
21613;SDS011;10969;49.550;25.564;2022-08-01T06:49:27;1.63;;;1.48;;
21613;SDS011;10969;49.550;25.564;2022-08-01T06:51:53;1.65;;;1.27;;
21613;SDS011;10969;49.550;25.564;2022-08-01T06:54:19;1.40;;;1.30;;
21613;SDS011;10969;49.550;25.564;2022-08-01T06:56:46;4.45;;;1.95;;
21613;SDS011;10969;49.550;25.564;2022-08-01T06:59:12;1.75;;;1.30;;
21613;SDS011;10969;49.550;25.564;2022-08-01T07:01:38;3.08;;;1.83;;
21613;SDS011;10969;49.550;25.564;2022-08-01T07:04:04;3.55;;;2.03;;
21613;SDS011;10969;49.550;25.564;2022-08-01T07:06:30;1.58;;;1.48;;
21613;SDS011;10969;49.550;25.564;2022-08-01T07:08:56;3.65;;;1.20;;
21613;SDS011;10969;49.550;25.564;2022-08-01T07:11:23;3.83;;;2.90;;
21613;SDS011;10969;49.550;25.564;2022-08-01T07:13:49;2.03;;;1.70;;
21613;SDS011;10969;49.550;25.564;2022-08-01T07:16:15;2.47;;;1.58;;
21613;SDS011;10969;49.550;25.564;2022-08-01T07:18:42;1.17;;;1.00;;
21613;SDS011;10969;49.550;25.564;2022-08-01T07:21:08;2.88;;;1.70;;
21613;SDS011;10969;49.550;25.564;2022-08-01T07:23:34;2.95;;;1.48;;
21613;SDS011;10969;49.550;25.564;2022-08-01T07:26:00;2.13;;;1.83;;
21613;SDS011;10969;49.550;25.564;2022-08-01T07:28:29;2.38;;;1.20;;
21613;SDS011;10969;49.550;25.564;2022-08-01T07:30:55;2.05;;;1.42;;
21613;SDS011;10969;49.550;25.564;2022-08-01T07:33:21;1.38;;;1.27;;
21613;SDS011;10969;49.550;25.564;2022-08-01T07:35:48;2.03;;;1.60;;
21613;SDS011;10969;49.550;25.564;2022-08-01T07:38:14;1.90;;;1.50;;
21613;SDS011;10969;49.550;25.564;2022-08-01T07:40:42;1.25;;;1.15;;
21613;SDS011;10969;49.550;25.564;2022-08-01T07:43:08;2.33;;;1.35;;
21613;SDS011;10969;49.550;25.564;2022-08-01T07:45:34;3.40;;;1.65;;
21613;SDS011;10969;49.550;25.564;2022-08-01T07:48:06;1.58;;;1.05;;
21613;SDS011;10969;49.550;25.564;2022-08-01T07:50:32;2.13;;;1.45;;
21613;SDS011;10969;49.550;25.564;2022-08-01T07:52:59;1.40;;;1.13;;
21613;SDS011;10969;49.550;25.564;2022-08-01T07:55:25;0.60;;;0.60;;
21613;SDS011;10969;49.550;25.564;2022-08-01T07:57:51;1.15;;;0.85;;
21613;SDS011;10969;49.550;25.564;2022-08-01T08:00:17;1.98;;;0.80;;
21613;SDS011;10969;49.550;25.564;2022-08-01T08:02:43;1.15;;;1.05;;
21613;SDS011;10969;49.550;25.564;2022-08-01T08:05:10;2.25;;;0.98;;
21613;SDS011;10969;49.550;25.564;2022-08-01T08:07:36;1.40;;;1.10;;
21613;SDS011;10969;49.550;25.564;2022-08-01T08:10:03;2.63;;;1.40;;
21613;SDS011;10969;49.550;25.564;2022-08-01T08:12:29;1.45;;;1.13;;
21613;SDS011;10969;49.550;25.564;2022-08-01T08:14:55;1.00;;;0.90;;
21613;SDS011;10969;49.550;25.564;2022-08-01T08:17:23;0.88;;;0.88;;
21613;SDS011;10969;49.550;25.564;2022-08-01T08:19:49;1.45;;;1.10;;
21613;SDS011;10969;49.550;25.564;2022-08-01T08:22:15;1.67;;;1.48;;
21613;SDS011;10969;49.550;25.564;2022-08-01T08:24:41;9.25;;;1.83;;
21613;SDS011;10969;49.550;25.564;2022-08-01T08:27:07;1.13;;;0.70;;
21613;SDS011;10969;49.550;25.564;2022-08-01T08:29:33;1.00;;;0.90;;
21613;SDS011;10969;49.550;25.564;2022-08-01T08:31:59;0.68;;;0.47;;
21613;SDS011;10969;49.550;25.564;2022-08-01T08:34:26;0.57;;;0.57;;
21613;SDS011;10969;49.550;25.564;2022-08-01T08:36:52;0.40;;;0.40;;
21613;SDS011;10969;49.550;25.564;2022-08-01T08:39:19;0.63;;;0.63;;
21613;SDS011;10969;49.550;25.564;2022-08-01T08:41:46;0.68;;;0.68;;
21613;SDS011;10969;49.550;25.564;2022-08-01T08:44:12;0.50;;;0.50;;
21613;SDS011;10969;49.550;25.564;2022-08-01T08:46:43;0.55;;;0.55;;
21613;SDS011;10969;49.550;25.564;2022-08-01T08:49:12;0.82;;;0.75;;
21613;SDS011;10969;49.550;25.564;2022-08-01T08:51:41;1.33;;;0.80;;
21613;SDS011;10969;49.550;25.564;2022-08-01T08:54:07;0.60;;;0.60;;
21613;SDS011;10969;49.550;25.564;2022-08-01T08:56:34;0.50;;;0.50;;
21613;SDS011;10969;49.550;25.564;2022-08-01T08:59:01;3.22;;;0.93;;
21613;SDS011;10969;49.550;25.564;2022-08-01T09:01:28;1.20;;;0.90;;
21613;SDS011;10969;49.550;25.564;2022-08-01T09:03:54;1.30;;;1.10;;
21613;SDS011;10969;49.550;25.564;2022-08-01T09:06:20;0.63;;;0.63;;
21613;SDS011;10969;49.550;25.564;2022-08-01T09:08:46;1.35;;;1.00;;
21613;SDS011;10969;49.550;25.564;2022-08-01T09:11:12;2.47;;;1.15;;
21613;SDS011;10969;49.550;25.564;2022-08-01T09:13:38;1.75;;;1.35;;
21613;SDS011;10969;49.550;25.564;2022-08-01T09:16:04;0.70;;;0.70;;
21613;SDS011;10969;49.550;25.564;2022-08-01T09:23:36;0.60;;;0.60;;
21613;SDS011;10969;49.550;25.564;2022-08-01T09:26:07;0.88;;;0.88;;
21613;SDS011;10969;49.550;25.564;2022-08-01T09:28:34;1.60;;;0.70;;
21613;SDS011;10969;49.550;25.564;2022-08-01T09:31:08;0.95;;;0.77;;
21613;SDS011;10969;49.550;25.564;2022-08-01T09:33:54;0.70;;;0.70;;
21613;SDS011;10969;49.550;25.564;2022-08-01T09:36:21;0.77;;;0.70;;
21613;SDS011;10969;49.550;25.564;2022-08-01T09:38:47;1.85;;;0.82;;
21613;SDS011;10969;49.550;25.564;2022-08-01T09:41:14;0.98;;;0.88;;
21613;SDS011;10969;49.550;25.564;2022-08-01T09:43:40;0.60;;;0.60;;
21613;SDS011;10969;49.550;25.564;2022-08-01T09:46:13;2.03;;;0.68;;
21613;SDS011;10969;49.550;25.564;2022-08-01T09:48:39;0.70;;;0.70;;
21613;SDS011;10969;49.550;25.564;2022-08-01T09:51:26;0.30;;;0.30;;
21613;SDS011;10969;49.550;25.564;2022-08-01T09:53:53;0.52;;;0.52;;
21613;SDS011;10969;49.550;25.564;2022-08-01T09:56:20;0.80;;;0.80;;
21613;SDS011;10969;49.550;25.564;2022-08-01T09:58:51;0.85;;;0.80;;
21613;SDS011;10969;49.550;25.564;2022-08-01T10:01:18;0.55;;;0.52;;
21613;SDS011;10969;49.550;25.564;2022-08-01T10:03:46;1.15;;;0.43;;
21613;SDS011;10969;49.550;25.564;2022-08-01T10:06:21;0.50;;;0.50;;
21613;SDS011;10969;49.550;25.564;2022-08-01T10:08:47;0.95;;;0.70;;
21613;SDS011;10969;49.550;25.564;2022-08-01T10:11:13;0.52;;;0.52;;
21613;SDS011;10969;49.550;25.564;2022-08-01T10:13:39;0.65;;;0.65;;
21613;SDS011;10969;49.550;25.564;2022-08-01T10:16:06;0.68;;;0.68;;
21613;SDS011;10969;49.550;25.564;2022-08-01T10:18:33;0.82;;;0.60;;
21613;SDS011;10969;49.550;25.564;2022-08-01T10:21:01;1.38;;;1.05;;
21613;SDS011;10969;49.550;25.564;2022-08-01T10:23:27;1.15;;;1.15;;
21613;SDS011;10969;49.550;25.564;2022-08-01T10:25:55;0.73;;;0.73;;
21613;SDS011;10969;49.550;25.564;2022-08-01T10:28:25;1.10;;;0.88;;
21613;SDS011;10969;49.550;25.564;2022-08-01T10:30:52;1.20;;;1.00;;
21613;SDS011;10969;49.550;25.564;2022-08-01T10:33:18;1.33;;;1.23;;
21613;SDS011;10969;49.550;25.564;2022-08-01T10:35:47;1.02;;;1.02;;
21613;SDS011;10969;49.550;25.564;2022-08-01T10:38:13;1.77;;;1.30;;
21613;SDS011;10969;49.550;25.564;2022-08-01T10:40:41;1.95;;;1.38;;
21613;SDS011;10969;49.550;25.564;2022-08-01T10:43:08;2.33;;;1.30;;
21613;SDS011;10969;49.550;25.564;2022-08-01T10:45:35;1.42;;;0.98;;
21613;SDS011;10969;49.550;25.564;2022-08-01T10:48:14;2.13;;;1.50;;
21613;SDS011;10969;49.550;25.564;2022-08-01T10:50:44;0.85;;;0.85;;
21613;SDS011;10969;49.550;25.564;2022-08-01T10:53:12;1.00;;;0.98;;
21613;SDS011;10969;49.550;25.564;2022-08-01T10:55:52;3.45;;;1.33;;
21613;SDS011;10969;49.550;25.564;2022-08-01T11:04:26;1.35;;;1.05;;
21613;SDS011;10969;49.550;25.564;2022-08-01T11:09:14;1.10;;;1.00;;
21613;SDS011;10969;49.550;25.564;2022-08-01T11:16:48;1.13;;;0.93;;
21613;SDS011;10969;49.550;25.564;2022-08-01T11:19:14;1.85;;;1.20;;
21613;SDS011;10969;49.550;25.564;2022-08-01T11:27:17;1.38;;;0.80;;
21613;SDS011;10969;49.550;25.564;2022-08-01T11:29:43;1.45;;;0.77;;
21613;SDS011;10969;49.550;25.564;2022-08-01T11:32:25;0.95;;;0.95;;
21613;SDS011;10969;49.550;25.564;2022-08-01T11:34:52;1.25;;;1.05;;
21613;SDS011;10969;49.550;25.564;2022-08-01T11:37:22;1.67;;;1.58;;
21613;SDS011;10969;49.550;25.564;2022-08-01T11:45:50;0.68;;;0.68;;
21613;SDS011;10969;49.550;25.564;2022-08-01T11:48:18;1.10;;;1.00;;
21613;SDS011;10969;49.550;25.564;2022-08-01T11:50:44;0.90;;;0.90;;
21613;SDS011;10969;49.550;25.564;2022-08-01T11:53:11;1.10;;;0.98;;
21613;SDS011;10969;49.550;25.564;2022-08-01T11:55:43;1.20;;;0.88;;
21613;SDS011;10969;49.550;25.564;2022-08-01T11:58:09;1.45;;;0.85;;
21613;SDS011;10969;49.550;25.564;2022-08-01T12:00:35;0.63;;;0.63;;
21613;SDS011;10969;49.550;25.564;2022-08-01T12:03:04;1.38;;;0.88;;
21613;SDS011;10969;49.550;25.564;2022-08-01T12:05:30;0.85;;;0.80;;
21613;SDS011;10969;49.550;25.564;2022-08-01T12:07:58;0.63;;;0.63;;
21613;SDS011;10969;49.550;25.564;2022-08-01T12:10:26;0.73;;;0.73;;
21613;SDS011;10969;49.550;25.564;2022-08-01T12:12:55;0.82;;;0.80;;
21613;SDS011;10969;49.550;25.564;2022-08-01T12:15:23;1.38;;;0.93;;
21613;SDS011;10969;49.550;25.564;2022-08-01T12:17:51;0.93;;;0.93;;
21613;SDS011;10969;49.550;25.564;2022-08-01T12:20:19;0.63;;;0.63;;
21613;SDS011;10969;49.550;25.564;2022-08-01T12:22:46;1.02;;;0.70;;
21613;SDS011;10969;49.550;25.564;2022-08-01T12:25:13;0.88;;;0.70;;
21613;SDS011;10969;49.550;25.564;2022-08-01T12:27:40;0.75;;;0.70;;
21613;SDS011;10969;49.550;25.564;2022-08-01T12:30:07;1.30;;;0.95;;
21613;SDS011;10969;49.550;25.564;2022-08-01T12:32:35;1.00;;;0.95;;
21613;SDS011;10969;49.550;25.564;2022-08-01T12:37:27;1.30;;;1.20;;
21613;SDS011;10969;49.550;25.564;2022-08-01T12:39:53;1.42;;;0.68;;
21613;SDS011;10969;49.550;25.564;2022-08-01T12:42:19;0.77;;;0.77;;
21613;SDS011;10969;49.550;25.564;2022-08-01T12:44:46;0.80;;;0.77;;
21613;SDS011;10969;49.550;25.564;2022-08-01T12:47:14;1.05;;;0.77;;
21613;SDS011;10969;49.550;25.564;2022-08-01T12:49:41;0.77;;;0.77;;
21613;SDS011;10969;49.550;25.564;2022-08-01T12:52:08;0.65;;;0.63;;
21613;SDS011;10969;49.550;25.564;2022-08-01T12:57:22;0.70;;;0.70;;
21613;SDS011;10969;49.550;25.564;2022-08-01T12:59:52;0.60;;;0.60;;
21613;SDS011;10969;49.550;25.564;2022-08-01T13:02:18;0.75;;;0.75;;
21613;SDS011;10969;49.550;25.564;2022-08-01T13:04:50;0.40;;;0.40;;
21613;SDS011;10969;49.550;25.564;2022-08-01T13:07:17;0.82;;;0.70;;
21613;SDS011;10969;49.550;25.564;2022-08-01T13:09:52;0.57;;;0.57;;
21613;SDS011;10969;49.550;25.564;2022-08-01T13:12:18;0.77;;;0.77;;
21613;SDS011;10969;49.550;25.564;2022-08-01T13:14:44;0.50;;;0.50;;
21613;SDS011;10969;49.550;25.564;2022-08-01T13:17:10;0.90;;;0.90;;
21613;SDS011;10969;49.550;25.564;2022-08-01T13:19:45;2.63;;;0.82;;
21613;SDS011;10969;49.550;25.564;2022-08-01T13:22:12;0.80;;;0.80;;
21613;SDS011;10969;49.550;25.564;2022-08-01T13:24:38;0.57;;;0.57;;
21613;SDS011;10969;49.550;25.564;2022-08-01T13:27:04;0.60;;;0.60;;
21613;SDS011;10969;49.550;25.564;2022-08-01T13:29:32;0.93;;;0.55;;
21613;SDS011;10969;49.550;25.564;2022-08-01T13:31:59;0.82;;;0.82;;
21613;SDS011;10969;49.550;25.564;2022-08-01T13:34:34;0.30;;;0.30;;
21613;SDS011;10969;49.550;25.564;2022-08-01T13:37:00;0.90;;;0.90;;
21613;SDS011;10969;49.550;25.564;2022-08-01T13:39:28;0.82;;;0.68;;
21613;SDS011;10969;49.550;25.564;2022-08-01T13:42:07;0.60;;;0.60;;
21613;SDS011;10969;49.550;25.564;2022-08-01T13:44:34;0.82;;;0.77;;
21613;SDS011;10969;49.550;25.564;2022-08-01T13:47:00;1.23;;;1.02;;
21613;SDS011;10969;49.550;25.564;2022-08-01T13:49:26;0.85;;;0.85;;
21613;SDS011;10969;49.550;25.564;2022-08-01T13:51:52;0.95;;;0.85;;
21613;SDS011;10969;49.550;25.564;2022-08-01T13:54:18;0.60;;;0.60;;
21613;SDS011;10969;49.550;25.564;2022-08-01T13:56:44;2.58;;;0.95;;
21613;SDS011;10969;49.550;25.564;2022-08-01T13:59:10;2.72;;;0.85;;
21613;SDS011;10969;49.550;25.564;2022-08-01T14:01:36;0.75;;;0.75;;
21613;SDS011;10969;49.550;25.564;2022-08-01T14:04:02;2.33;;;1.60;;
21613;SDS011;10969;49.550;25.564;2022-08-01T14:06:28;2.67;;;2.08;;
21613;SDS011;10969;49.550;25.564;2022-08-01T14:08:54;4.47;;;2.97;;
21613;SDS011;10969;49.550;25.564;2022-08-01T14:11:21;4.47;;;3.03;;
21613;SDS011;10969;49.550;25.564;2022-08-01T14:13:46;3.85;;;2.60;;
21613;SDS011;10969;49.550;25.564;2022-08-01T14:16:13;5.97;;;3.00;;
21613;SDS011;10969;49.550;25.564;2022-08-01T14:18:39;3.35;;;2.35;;
21613;SDS011;10969;49.550;25.564;2022-08-01T14:21:05;4.07;;;3.17;;
21613;SDS011;10969;49.550;25.564;2022-08-01T14:23:31;4.82;;;3.13;;
21613;SDS011;10969;49.550;25.564;2022-08-01T14:25:57;6.35;;;3.63;;
21613;SDS011;10969;49.550;25.564;2022-08-01T14:28:23;8.90;;;3.75;;
21613;SDS011;10969;49.550;25.564;2022-08-01T14:30:51;6.00;;;3.00;;
21613;SDS011;10969;49.550;25.564;2022-08-01T14:33:17;3.30;;;2.75;;
21613;SDS011;10969;49.550;25.564;2022-08-01T14:35:43;4.43;;;3.25;;
21613;SDS011;10969;49.550;25.564;2022-08-01T14:38:09;3.85;;;2.83;;
21613;SDS011;10969;49.550;25.564;2022-08-01T14:40:36;4.22;;;2.40;;
21613;SDS011;10969;49.550;25.564;2022-08-01T14:43:03;4.95;;;3.20;;
21613;SDS011;10969;49.550;25.564;2022-08-01T14:45:29;3.33;;;2.17;;
21613;SDS011;10969;49.550;25.564;2022-08-01T14:47:55;4.65;;;3.05;;
21613;SDS011;10969;49.550;25.564;2022-08-01T14:50:21;4.85;;;3.03;;
21613;SDS011;10969;49.550;25.564;2022-08-01T14:52:48;6.20;;;3.58;;
21613;SDS011;10969;49.550;25.564;2022-08-01T14:55:14;4.32;;;2.75;;
21613;SDS011;10969;49.550;25.564;2022-08-01T14:57:41;5.68;;;3.22;;
21613;SDS011;10969;49.550;25.564;2022-08-01T15:00:07;4.90;;;3.28;;
21613;SDS011;10969;49.550;25.564;2022-08-01T15:02:40;5.68;;;2.92;;
21613;SDS011;10969;49.550;25.564;2022-08-01T15:05:06;4.97;;;2.67;;
21613;SDS011;10969;49.550;25.564;2022-08-01T15:07:33;4.70;;;2.67;;
21613;SDS011;10969;49.550;25.564;2022-08-01T15:09:59;3.65;;;2.50;;
21613;SDS011;10969;49.550;25.564;2022-08-01T15:12:25;4.85;;;2.65;;
21613;SDS011;10969;49.550;25.564;2022-08-01T15:14:51;3.78;;;2.72;;
21613;SDS011;10969;49.550;25.564;2022-08-01T15:17:21;3.63;;;2.67;;
21613;SDS011;10969;49.550;25.564;2022-08-01T15:19:49;6.97;;;2.95;;